Time;durP1;ratioP1;P1;durP2;ratioP2;P2;SDS_P1;SDS_P2;PMS_P1;PMS_P2;Temp;Humidity;BMP_temperature;BMP_pressure;BME280_temperature;BME280_humidity;BME280_pressure;Samples;Min_cycle;Max_cycle;Signal;HPM_P1;HPM_P2
2021/05/26 00:02:14;;;;;;;1.20;1.10;;;9.10;99.90;;;;;;5013284;28;20449;-76
2021/05/26 00:04:40;;;;;;;1.70;1.15;;;9.10;99.90;;;;;;5027066;28;20115;-75
2021/05/26 00:07:06;;;;;;;1.35;1.25;;;9.10;99.90;;;;;;5032565;28;20088;-75
2021/05/26 00:09:32;;;;;;;1.20;1.10;;;9.20;99.90;;;;;;5032920;28;20073;-74
2021/05/26 00:11:58;;;;;;;4.68;1.35;;;9.20;99.90;;;;;;5032760;28;20072;-74
2021/05/26 00:14:25;;;;;;;2.13;0.80;;;9.20;99.90;;;;;;5033102;28;20367;-75
2021/05/26 00:16:51;;;;;;;2.20;0.90;;;9.20;99.90;;;;;;5032225;28;20060;-75
2021/05/26 00:19:18;;;;;;;0.77;0.70;;;9.10;99.90;;;;;;5025208;28;20418;-75
2021/05/26 00:21:44;;;;;;;1.43;1.10;;;9.20;99.90;;;;;;5013096;28;20053;-75
2021/05/26 00:24:10;;;;;;;0.63;0.63;;;9.20;99.90;;;;;;5013048;28;20425;-75
2021/05/26 00:26:36;;;;;;;1.10;1.10;;;9.20;99.90;;;;;;5012906;28;20493;-75
2021/05/26 00:29:02;;;;;;;1.42;0.95;;;9.30;99.90;;;;;;5012527;28;20038;-75
2021/05/26 00:31:30;;;;;;;0.90;0.90;;;9.20;99.90;;;;;;5018569;28;20041;-75
2021/05/26 00:33:56;;;;;;;1.10;1.10;;;9.20;99.90;;;;;;5026218;28;20082;-75
2021/05/26 00:36:22;;;;;;;0.93;0.80;;;9.20;99.90;;;;;;5022530;28;20073;-76
2021/05/26 00:38:49;;;;;;;1.30;0.88;;;9.20;99.90;;;;;;5032704;28;20060;-75
2021/05/26 00:41:15;;;;;;;0.80;0.80;;;9.20;99.90;;;;;;5029564;28;20042;-75
2021/05/26 00:43:41;;;;;;;1.83;1.73;;;9.10;99.90;;;;;;5032204;28;20045;-75
2021/05/26 00:46:07;;;;;;;1.92;1.48;;;9.10;99.90;;;;;;5032149;28;20119;-75
2021/05/26 00:48:34;;;;;;;1.30;1.00;;;9.10;99.90;;;;;;5031850;28;20041;-75
2021/05/26 00:51:01;;;;;;;0.80;0.80;;;9.10;99.90;;;;;;5032295;28;20478;-75
2021/05/26 00:53:28;;;;;;;1.10;0.80;;;9.10;99.90;;;;;;5032600;28;20084;-75
2021/05/26 00:55:55;;;;;;;0.70;0.70;;;9.10;99.90;;;;;;5019099;28;20050;-75
2021/05/26 00:58:21;;;;;;;0.90;0.80;;;9.00;99.90;;;;;;5019089;28;20046;-75
2021/05/26 01:00:47;;;;;;;1.02;0.93;;;9.00;99.90;;;;;;5037825;28;20088;-75
2021/05/26 01:03:13;;;;;;;0.77;0.77;;;9.00;99.90;;;;;;5038674;28;20442;-75
2021/05/26 01:05:40;;;;;;;0.95;0.70;;;9.00;99.90;;;;;;5026682;28;20109;-75
2021/05/26 01:08:06;;;;;;;0.90;0.70;;;9.00;99.90;;;;;;5018905;28;20398;-76
2021/05/26 01:10:34;;;;;;;0.70;0.67;;;9.00;99.90;;;;;;5018875;28;20050;-76
2021/05/26 01:13:00;;;;;;;1.77;1.13;;;9.10;99.90;;;;;;5018768;28;20049;-76
2021/05/26 01:15:26;;;;;;;0.87;0.40;;;9.10;99.90;;;;;;5029093;28;20440;-75
2021/05/26 01:17:53;;;;;;;0.70;0.70;;;9.10;99.90;;;;;;5038056;28;20527;-75
2021/05/26 01:20:23;;;;;;;1.37;0.90;;;9.10;99.90;;;;;;5038732;28;20397;-76
2021/05/26 01:22:50;;;;;;;0.77;0.77;;;9.10;99.90;;;;;;5038777;28;20089;-75
2021/05/26 01:25:17;;;;;;;1.93;1.23;;;9.00;99.90;;;;;;5038445;28;20052;-75
2021/05/26 01:27:43;;;;;;;1.52;1.20;;;9.00;99.90;;;;;;5038177;28;20076;-75
2021/05/26 01:30:10;;;;;;;0.82;0.82;;;9.10;99.90;;;;;;5038111;28;20041;-75
2021/05/26 01:32:41;;;;;;;1.00;0.65;;;9.10;99.90;;;;;;5018862;28;20045;-75
2021/05/26 01:35:10;;;;;;;1.67;0.98;;;9.10;99.90;;;;;;5018948;28;20096;-77
2021/05/26 01:37:41;;;;;;;1.13;1.00;;;9.10;99.90;;;;;;5018419;28;20069;-76
2021/05/26 01:40:11;;;;;;;1.13;1.02;;;9.10;99.90;;;;;;5018695;28;20053;-75
2021/05/26 01:42:37;;;;;;;1.50;0.87;;;9.10;99.90;;;;;;5018665;28;20064;-76
2021/05/26 01:45:05;;;;;;;2.80;0.88;;;9.10;99.90;;;;;;5031147;28;20046;-76
2021/05/26 01:47:31;;;;;;;1.20;0.90;;;9.10;99.90;;;;;;5038129;28;20041;-75
2021/05/26 01:49:58;;;;;;;1.23;0.98;;;9.00;99.90;;;;;;5036520;28;20551;-75
2021/05/26 01:52:24;;;;;;;1.93;1.13;;;9.00;99.90;;;;;;5038189;28;20179;-76
2021/05/26 01:54:50;;;;;;;1.57;0.90;;;9.00;99.90;;;;;;5031347;28;20046;-75
2021/05/26 01:57:17;;;;;;;1.80;1.00;;;9.00;99.90;;;;;;5018222;28;20054;-76
2021/05/26 01:59:43;;;;;;;1.03;0.93;;;8.90;99.90;;;;;;5018657;28;20410;-75
2021/05/26 02:02:09;;;;;;;0.90;0.90;;;8.90;99.90;;;;;;5025431;28;20045;-75
2021/05/26 02:04:35;;;;;;;0.98;0.98;;;9.00;99.90;;;;;;5038096;28;20091;-75
2021/05/26 02:07:06;;;;;;;1.00;0.97;;;9.00;99.90;;;;;;5034347;28;20068;-75
2021/05/26 02:09:32;;;;;;;1.77;0.97;;;9.00;99.90;;;;;;5034968;28;20452;-75
2021/05/26 02:14:44;;;;;;;0.98;0.90;;;9.00;99.90;;;;;;5032775;28;20048;-75
2021/05/26 02:17:10;;;;;;;1.08;0.88;;;9.00;99.90;;;;;;5015299;28;20045;-74
2021/05/26 02:19:36;;;;;;;2.13;1.00;;;9.00;99.90;;;;;;5015081;28;20127;-74
2021/05/26 02:22:02;;;;;;;1.23;0.70;;;9.00;99.90;;;;;;5017532;28;20393;-75
2021/05/26 02:24:28;;;;;;;1.30;1.10;;;9.00;99.90;;;;;;5015221;28;20045;-73
2021/05/26 02:26:54;;;;;;;0.73;0.73;;;9.00;99.90;;;;;;5014703;28;20409;-75
2021/05/26 02:29:20;;;;;;;1.48;1.10;;;9.00;99.90;;;;;;5015130;28;20058;-74
2021/05/26 02:31:48;;;;;;;1.40;1.30;;;9.00;99.90;;;;;;5015186;28;20108;-74
2021/05/26 02:34:14;;;;;;;0.80;0.80;;;9.00;99.90;;;;;;5015033;28;20405;-76
2021/05/26 02:36:41;;;;;;;1.15;0.95;;;9.00;99.90;;;;;;5014744;28;20416;-76
2021/05/26 02:39:07;;;;;;;1.45;1.13;;;9.00;99.90;;;;;;5021166;28;20046;-75
2021/05/26 02:41:33;;;;;;;0.80;0.80;;;9.10;99.90;;;;;;5014732;28;20049;-75
2021/05/26 02:44:00;;;;;;;1.93;1.00;;;9.00;99.90;;;;;;5014827;28;20046;-75
2021/05/26 02:46:26;;;;;;;1.90;1.10;;;9.00;99.90;;;;;;5014404;28;20054;-74
2021/05/26 02:48:53;;;;;;;2.85;1.27;;;9.10;99.90;;;;;;5014847;28;20049;-74
2021/05/26 02:51:19;;;;;;;2.05;1.38;;;9.00;99.90;;;;;;5021304;28;20042;-73
2021/05/26 02:53:45;;;;;;;2.27;0.97;;;9.10;99.90;;;;;;5017372;28;20049;-74
2021/05/26 02:56:12;;;;;;;1.00;1.00;;;9.10;99.90;;;;;;5014299;28;20057;-74
2021/05/26 02:58:38;;;;;;;2.67;1.08;;;9.00;99.90;;;;;;5014097;28;20053;-75
2021/05/26 03:01:05;;;;;;;2.77;1.23;;;9.00;99.90;;;;;;5014442;28;20042;-75
2021/05/26 03:03:31;;;;;;;2.45;1.27;;;9.00;99.90;;;;;;5014599;28;20049;-74
2021/05/26 03:05:58;;;;;;;1.70;0.88;;;9.00;99.90;;;;;;5019735;28;20045;-75
2021/05/26 03:08:24;;;;;;;1.27;1.13;;;9.00;99.90;;;;;;5035118;28;20041;-76
2021/05/26 03:10:55;;;;;;;0.95;0.90;;;9.00;99.90;;;;;;5027287;28;20486;-75
2021/05/26 03:13:21;;;;;;;1.00;0.90;;;9.00;99.90;;;;;;5014368;28;20129;-74
2021/05/26 03:15:47;;;;;;;2.40;0.83;;;9.10;99.90;;;;;;5015011;28;20068;-74
2021/05/26 03:18:13;;;;;;;1.48;1.38;;;9.10;99.90;;;;;;5033508;28;20107;-75
2021/05/26 03:20:39;;;;;;;2.00;1.10;;;9.10;99.90;;;;;;5028299;28;20417;-75
2021/05/26 03:23:06;;;;;;;3.22;1.15;;;9.00;99.90;;;;;;5014150;28;20045;-74
2021/05/26 03:25:33;;;;;;;1.38;1.27;;;9.10;99.90;;;;;;5013773;28;20104;-75
2021/05/26 03:27:59;;;;;;;0.73;0.73;;;9.10;99.90;;;;;;5013956;28;20117;-74
2021/05/26 03:30:25;;;;;;;1.33;1.20;;;9.10;99.90;;;;;;5014087;28;20057;-74
2021/05/26 03:32:51;;;;;;;2.22;0.88;;;9.10;99.90;;;;;;5013854;28;20050;-74
2021/05/26 03:35:18;;;;;;;4.03;1.48;;;9.20;99.90;;;;;;5026282;28;20041;-75
2021/05/26 03:37:45;;;;;;;5.97;1.60;;;9.20;99.90;;;;;;5029328;28;20057;-74
2021/05/26 03:40:15;;;;;;;2.10;1.40;;;9.20;99.90;;;;;;5014193;28;20054;-75
2021/05/26 03:42:42;;;;;;;2.90;1.88;;;9.20;99.90;;;;;;5014446;28;20045;-74
2021/05/26 03:45:10;;;;;;;0.90;0.83;;;9.30;99.90;;;;;;5014771;28;20069;-73
2021/05/26 03:47:37;;;;;;;2.40;1.15;;;9.30;99.90;;;;;;5016042;28;20057;-73
2021/05/26 03:50:03;;;;;;;1.05;0.90;;;9.30;99.90;;;;;;5013717;28;20513;-73
2021/05/26 03:52:30;;;;;;;1.30;1.20;;;9.30;99.90;;;;;;5015089;28;20053;-75
2021/05/26 03:54:56;;;;;;;1.63;1.40;;;9.20;99.90;;;;;;5013853;28;20064;-75
2021/05/26 03:57:22;;;;;;;1.00;0.88;;;9.30;99.90;;;;;;5032698;28;20099;-73
2021/05/26 03:59:49;;;;;;;1.30;1.20;;;9.30;99.90;;;;;;5032862;28;20152;-75
2021/05/26 04:02:15;;;;;;;2.42;1.35;;;9.40;99.90;;;;;;5014799;28;20046;-74
2021/05/26 04:04:41;;;;;;;2.70;0.98;;;9.40;99.90;;;;;;5013701;28;20486;-73
2021/05/26 04:07:08;;;;;;;1.95;1.48;;;9.40;99.90;;;;;;5020815;28;20053;-71
2021/05/26 04:09:34;;;;;;;1.17;1.08;;;9.50;99.90;;;;;;5032420;28;20076;-71
2021/05/26 04:12:00;;;;;;;3.70;1.20;;;9.50;99.90;;;;;;5033208;28;20497;-74
2021/05/26 04:14:27;;;;;;;1.33;1.23;;;9.60;99.90;;;;;;5032317;28;20056;-74
2021/05/26 04:16:53;;;;;;;1.20;1.10;;;9.70;99.90;;;;;;5020531;28;20056;-74
2021/05/26 04:19:19;;;;;;;1.70;1.60;;;9.70;99.90;;;;;;5033042;28;20416;-71
2021/05/26 04:21:46;;;;;;;1.45;1.25;;;9.70;99.90;;;;;;5025760;28;20041;-74
2021/05/26 04:24:12;;;;;;;2.28;1.55;;;9.70;99.90;;;;;;5013725;28;20061;-73
2021/05/26 04:26:38;;;;;;;2.90;1.52;;;9.70;99.90;;;;;;5027308;28;20413;-72
2021/05/26 04:29:06;;;;;;;2.25;1.10;;;9.80;99.90;;;;;;5031779;28;20045;-73
2021/05/26 04:31:33;;;;;;;1.65;1.10;;;9.70;99.90;;;;;;5032643;28;20045;-73
2021/05/26 04:33:59;;;;;;;3.38;1.88;;;9.80;99.90;;;;;;5030176;28;20060;-76
2021/05/26 04:36:26;;;;;;;3.83;1.33;;;9.90;99.90;;;;;;5015055;28;20041;-73
2021/05/26 04:38:52;;;;;;;1.30;1.20;;;9.90;99.90;;;;;;5031077;28;20076;-72
2021/05/26 04:41:18;;;;;;;1.50;1.30;;;9.90;99.90;;;;;;5032940;28;20046;-73
2021/05/26 04:43:45;;;;;;;3.13;1.58;;;9.90;99.90;;;;;;5026937;28;20050;-74
2021/05/26 04:46:25;;;;;;;1.27;1.13;;;10.00;99.90;;;;;;5031988;28;20057;-72
2021/05/26 04:48:56;;;;;;;1.73;1.63;;;10.10;99.90;;;;;;5033183;28;20050;-72
2021/05/26 04:51:25;;;;;;;2.30;1.38;;;10.10;99.90;;;;;;5031576;28;20056;-73
2021/05/26 04:53:51;;;;;;;1.83;1.02;;;10.10;99.90;;;;;;5025994;28;20049;-73
2021/05/26 04:56:18;;;;;;;0.98;0.98;;;10.00;99.90;;;;;;5024733;28;20047;-73
2021/05/26 04:58:44;;;;;;;1.00;1.00;;;10.10;99.90;;;;;;5032062;28;20049;-72
2021/05/26 05:01:10;;;;;;;0.95;0.95;;;10.20;99.90;;;;;;5033036;28;20709;-73
2021/05/26 05:03:36;;;;;;;2.40;1.50;;;10.30;99.90;;;;;;5029026;28;20100;-72
2021/05/26 05:06:04;;;;;;;3.25;1.65;;;10.40;99.90;;;;;;5030654;28;20045;-73
2021/05/26 05:08:30;;;;;;;1.35;1.25;;;10.60;99.90;;;;;;5020907;28;20041;-74
2021/05/26 05:10:56;;;;;;;2.17;2.00;;;10.60;99.90;;;;;;5017563;28;20529;-73
2021/05/26 05:13:23;;;;;;;1.67;1.48;;;10.60;99.90;;;;;;5013476;28;20049;-71
2021/05/26 05:15:49;;;;;;;1.38;1.27;;;10.60;99.90;;;;;;5013441;28;20058;-72
2021/05/26 05:18:15;;;;;;;2.28;1.33;;;10.60;99.90;;;;;;5013462;28;20046;-73
2021/05/26 05:20:41;;;;;;;1.85;1.17;;;10.80;99.90;;;;;;5021233;28;20413;-76
2021/05/26 05:23:08;;;;;;;1.55;1.35;;;10.80;99.90;;;;;;5031959;28;20705;-73
2021/05/26 05:25:35;;;;;;;1.40;1.30;;;10.90;99.90;;;;;;5031583;28;20053;-72
2021/05/26 05:28:01;;;;;;;1.83;1.63;;;10.80;99.90;;;;;;5024699;28;20065;-71
2021/05/26 05:30:27;;;;;;;1.92;1.50;;;10.80;99.90;;;;;;5023746;28;20425;-75
2021/05/26 05:32:54;;;;;;;1.65;1.40;;;10.80;99.90;;;;;;5023756;28;20050;-74
2021/05/26 05:35:20;;;;;;;2.47;1.27;;;10.80;99.90;;;;;;5018834;28;20068;-72
2021/05/26 05:37:46;;;;;;;2.40;1.70;;;10.70;99.90;;;;;;5032017;28;20425;-71
2021/05/26 05:40:23;;;;;;;2.22;1.48;;;10.60;99.90;;;;;;5030371;28;20057;-74
2021/05/26 05:42:49;;;;;;;1.48;1.27;;;10.60;99.90;;;;;;5025404;28;20056;-73
2021/05/26 05:45:15;;;;;;;1.63;1.25;;;10.70;99.90;;;;;;5033322;28;20037;-74
2021/05/26 05:47:41;;;;;;;5.38;1.70;;;10.80;99.90;;;;;;5033162;28;20068;-76
2021/05/26 05:50:15;;;;;;;2.38;1.83;;;10.80;99.90;;;;;;5025512;28;20505;-70
2021/05/26 05:52:41;;;;;;;3.17;1.55;;;10.90;99.90;;;;;;5035154;28;20463;-69
2021/05/26 05:55:09;;;;;;;3.90;1.92;;;11.00;99.90;;;;;;5034957;28;20482;-69
2021/05/26 05:57:37;;;;;;;1.52;1.40;;;11.10;99.90;;;;;;5035123;28;20049;-72
2021/05/26 06:00:04;;;;;;;1.75;1.58;;;11.20;99.90;;;;;;5028594;28;20061;-76
2021/05/26 06:02:31;;;;;;;1.95;1.75;;;11.20;99.90;;;;;;5016152;28;20046;-76
2021/05/26 06:04:57;;;;;;;1.67;1.45;;;11.20;99.90;;;;;;5015601;28;20049;-72
2021/05/26 06:07:23;;;;;;;2.55;1.70;;;11.40;99.90;;;;;;5015053;28;20108;-74
2021/05/26 06:09:51;;;;;;;2.33;1.67;;;11.40;99.90;;;;;;5024854;28;20477;-76
2021/05/26 06:12:20;;;;;;;1.42;1.33;;;11.20;99.90;;;;;;5036623;28;20111;-73
2021/05/26 06:20:12;;;;;;;1.55;1.30;;;11.80;99.90;;;;;;5014503;28;20053;-75
2021/05/26 06:22:41;;;;;;;1.77;1.55;;;11.90;99.90;;;;;;5014940;28;20421;-75
2021/05/26 06:25:08;;;;;;;3.47;1.75;;;11.80;99.90;;;;;;5015052;28;20050;-74
2021/05/26 06:27:35;;;;;;;1.80;1.70;;;11.70;99.90;;;;;;5014324;28;20104;-74
2021/05/26 06:30:03;;;;;;;1.55;1.45;;;11.60;99.90;;;;;;5016064;28;20050;-77
2021/05/26 06:32:29;;;;;;;1.92;1.73;;;11.70;99.90;;;;;;5015088;28;20470;-74
2021/05/26 06:34:55;;;;;;;1.35;1.17;;;11.90;99.90;;;;;;5014973;28;20046;-72
2021/05/26 06:37:21;;;;;;;2.55;1.58;;;12.00;99.90;;;;;;5014571;28;20092;-71
2021/05/26 06:39:48;;;;;;;2.25;1.88;;;12.00;99.90;;;;;;5014416;28;20058;-73
2021/05/26 06:42:22;;;;;;;3.03;2.00;;;12.10;99.90;;;;;;5014600;28;20144;-70
2021/05/26 06:44:48;;;;;;;1.67;1.58;;;12.10;99.90;;;;;;5014340;28;20046;-74
2021/05/26 06:47:15;;;;;;;2.10;1.50;;;11.90;99.90;;;;;;5014397;28;20046;-75
2021/05/26 06:49:41;;;;;;;2.10;1.90;;;11.90;99.90;;;;;;5016973;28;20490;-74
2021/05/26 06:52:08;;;;;;;1.77;1.50;;;11.90;99.90;;;;;;5033747;28;20052;-75
2021/05/26 06:54:34;;;;;;;2.22;1.77;;;12.10;99.90;;;;;;5034354;28;20144;-74
2021/05/26 06:59:41;;;;;;;1.65;1.55;;;12.40;99.90;;;;;;5029912;28;20104;-73
2021/05/26 07:02:07;;;;;;;1.40;1.30;;;12.60;99.90;;;;;;5014537;28;20505;-73
2021/05/26 07:04:34;;;;;;;2.67;1.48;;;12.80;99.90;;;;;;5015655;28;20100;-72
2021/05/26 07:07:00;;;;;;;1.88;1.55;;;13.00;99.90;;;;;;5013880;28;20410;-72
2021/05/26 07:09:27;;;;;;;4.38;1.42;;;13.40;99.90;;;;;;5014038;28;20481;-73
2021/05/26 07:11:53;;;;;;;4.20;1.80;;;13.30;99.90;;;;;;5031471;28;20393;-75
2021/05/26 07:14:20;;;;;;;1.65;1.52;;;13.40;99.90;;;;;;5032171;28;20041;-73
2021/05/26 07:16:48;;;;;;;3.20;1.35;;;13.90;99.90;;;;;;5026644;28;20048;-73
2021/05/26 07:19:15;;;;;;;1.60;1.30;;;14.00;99.90;;;;;;5033933;28;20409;-74
2021/05/26 07:21:43;;;;;;;1.65;1.55;;;14.10;99.90;;;;;;5018424;28;20053;-74
2021/05/26 07:24:09;;;;;;;3.00;1.20;;;14.00;99.90;;;;;;5014065;28;20050;-74
2021/05/26 07:26:37;;;;;;;2.58;1.50;;;14.20;99.90;;;;;;5013521;28;20046;-73
2021/05/26 07:29:04;;;;;;;1.70;1.60;;;14.30;99.90;;;;;;5014303;28;20050;-71
2021/05/26 07:34:10;;;;;;;2.92;1.65;;;14.00;99.90;;;;;;5027602;28;20061;-73
2021/05/26 07:36:36;;;;;;;2.90;1.70;;;13.90;99.90;;;;;;4967235;28;20055;-70
2021/05/26 07:39:05;;;;;;;5.40;2.17;;;14.20;99.90;;;;;;5007033;28;20541;-72
2021/05/26 07:41:31;;;;;;;2.05;1.63;;;14.50;99.90;;;;;;5033125;28;20132;-73
2021/05/26 07:46:53;;;;;;;1.73;1.63;;;15.10;99.90;;;;;;5091270;27;20368;-73
2021/05/26 07:49:20;;;;;;;1.08;0.98;;;15.50;99.90;;;;;;5088096;28;20147;-72
2021/05/26 07:51:50;;;;;;;1.55;1.45;;;15.20;99.90;;;;;;5069696;28;20044;-71
2021/05/26 07:54:16;;;;;;;1.65;1.05;;;14.90;99.90;;;;;;5069650;28;20099;-71
2021/05/26 07:56:42;;;;;;;5.55;1.40;;;14.50;99.90;;;;;;5067981;28;20106;-75
2021/05/26 07:59:08;;;;;;;1.10;1.10;;;14.30;99.90;;;;;;5049385;28;20045;-75
2021/05/26 08:01:34;;;;;;;1.23;1.13;;;14.20;99.90;;;;;;5049661;28;20049;-74
2021/05/26 08:04:01;;;;;;;2.20;1.42;;;14.20;99.90;;;;;;5049345;28;20091;-74
2021/05/26 08:06:37;;;;;;;1.98;1.83;;;15.00;99.90;;;;;;5049295;28;20077;-74
2021/05/26 08:09:05;;;;;;;6.10;1.48;;;15.20;99.80;;;;;;5029475;28;20096;-74
2021/05/26 08:11:31;;;;;;;7.50;3.10;;;14.80;99.90;;;;;;5029755;28;20049;-74
2021/05/26 08:13:59;;;;;;;1.00;1.00;;;14.60;99.90;;;;;;5029762;28;20502;-74
2021/05/26 08:16:26;;;;;;;2.90;1.55;;;14.50;99.90;;;;;;5030872;28;20060;-74
2021/05/26 08:18:52;;;;;;;3.05;1.30;;;14.60;99.90;;;;;;5029034;28;20466;-74
2021/05/26 08:21:20;;;;;;;1.27;1.25;;;15.40;99.90;;;;;;5029169;28;20477;-74
2021/05/26 08:23:48;;;;;;;1.25;1.15;;;16.40;98.40;;;;;;5029410;28;20080;-74
2021/05/26 08:26:22;;;;;;;1.77;1.50;;;15.90;97.70;;;;;;5029133;28;20053;-74
2021/05/26 08:28:49;;;;;;;3.50;1.45;;;15.60;99.10;;;;;;5029397;28;20049;-74
2021/05/26 08:31:15;;;;;;;3.03;1.08;;;16.30;97.90;;;;;;5029041;28;20045;-74
2021/05/26 08:33:41;;;;;;;1.40;1.08;;;16.30;97.00;;;;;;5029186;28;20107;-74
2021/05/26 08:36:08;;;;;;;1.40;1.20;;;16.50;96.60;;;;;;5029147;28;20133;-74
2021/05/26 08:38:35;;;;;;;4.35;1.52;;;17.00;95.70;;;;;;5029097;28;20050;-75
2021/05/26 08:41:04;;;;;;;1.55;1.00;;;16.90;95.20;;;;;;5029009;28;20058;-74
2021/05/26 08:43:30;;;;;;;1.35;1.25;;;16.90;95.50;;;;;;5042743;28;20417;-74
2021/05/26 08:45:57;;;;;;;1.25;1.10;;;16.30;94.00;;;;;;5049472;28;20057;-74
2021/05/26 08:48:29;;;;;;;5.20;1.13;;;16.10;95.00;;;;;;5048447;28;20497;-74
2021/05/26 08:50:56;;;;;;;1.35;1.25;;;16.20;95.20;;;;;;5048761;28;20110;-74
2021/05/26 08:53:22;;;;;;;1.27;1.17;;;16.10;94.80;;;;;;5040680;28;20046;-74
2021/05/26 08:55:49;;;;;;;3.70;1.50;;;15.60;94.40;;;;;;5028786;28;20095;-75
2021/05/26 08:58:15;;;;;;;1.27;1.17;;;15.50;94.40;;;;;;5015164;28;20417;-74
2021/05/26 09:00:41;;;;;;;3.55;2.42;;;16.10;93.30;;;;;;5015534;28;20041;-74
2021/05/26 09:03:07;;;;;;;0.90;0.75;;;16.50;92.30;;;;;;5015498;28;20053;-74
2021/05/26 09:05:34;;;;;;;0.95;0.85;;;16.90;91.20;;;;;;5014895;28;20505;-75
2021/05/26 09:08:16;;;;;;;1.05;0.95;;;17.00;90.50;;;;;;5014920;28;20516;-74
2021/05/26 09:10:50;;;;;;;0.93;0.75;;;16.70;91.00;;;;;;5015050;28;20077;-75
2021/05/26 09:13:33;;;;;;;0.75;0.75;;;17.70;89.60;;;;;;5015241;28;20045;-74
2021/05/26 09:16:00;;;;;;;2.72;1.08;;;18.00;85.90;;;;;;5015175;28;20387;-75
2021/05/26 09:18:27;;;;;;;1.25;0.90;;;18.10;86.50;;;;;;5015192;28;20046;-74
2021/05/26 09:20:56;;;;;;;1.85;1.30;;;18.00;84.60;;;;;;5015437;28;20054;-75
2021/05/26 09:23:27;;;;;;;1.00;0.90;;;17.30;83.50;;;;;;5015168;28;20060;-74
2021/05/26 09:25:56;;;;;;;;;;;16.10;85.50;;;;;;5015458;28;20145;-74
2021/05/26 09:28:24;;;;;;;2.75;1.05;;;16.20;87.30;;;;;;5014987;28;19921;-74
2021/05/26 09:30:53;;;;;;;5.00;1.70;;;16.20;87.30;;;;;;5016516;28;20046;-74
2021/05/26 09:33:27;;;;;;;0.68;0.68;;;16.80;88.40;;;;;;5015093;28;20053;-74
2021/05/26 09:36:14;;;;;;;1.50;1.20;;;17.30;85.00;;;;;;5014612;28;20370;-73
2021/05/26 09:38:43;;;;;;;3.33;1.23;;;17.20;83.10;;;;;;5014665;28;20042;-73
2021/05/26 09:41:12;;;;;;;6.20;3.05;;;16.30;86.40;;;;;;5034435;28;20045;-74
2021/05/26 09:43:52;;;;;;;5.13;2.40;;;15.80;89.20;;;;;;5034081;28;20041;-74
2021/05/26 09:46:33;;;;;;;1.27;1.17;;;15.80;90.70;;;;;;5032399;28;20049;-74
2021/05/26 09:49:16;;;;;;;1.83;1.45;;;16.00;90.50;;;;;;5034587;28;20053;-73
2021/05/26 09:51:45;;;;;;;6.95;2.30;;;15.90;91.00;;;;;;5032834;28;20045;-73
2021/05/26 09:54:20;;;;;;;0.88;0.88;;;16.60;89.50;;;;;;5034072;28;20496;-73
2021/05/26 09:56:48;;;;;;;1.45;0.85;;;16.50;88.40;;;;;;5033708;28;20092;-74
2021/05/26 09:59:15;;;;;;;1.13;0.95;;;16.20;87.20;;;;;;5030524;28;20058;-74
2021/05/26 10:01:42;;;;;;;1.42;1.30;;;15.90;89.40;;;;;;5014206;28;20046;-74
2021/05/26 10:04:09;;;;;;;4.05;1.20;;;15.80;87.20;;;;;;5014712;28;20050;-74
2021/05/26 10:06:39;;;;;;;1.30;0.90;;;15.80;89.20;;;;;;5014150;28;20111;-74
2021/05/26 10:09:09;;;;;;;5.82;1.02;;;15.80;89.60;;;;;;5012726;28;20046;-75
2021/05/26 10:11:35;;;;;;;5.15;1.15;;;15.60;90.00;;;;;;5013947;28;20042;-75
2021/05/26 10:14:07;;;;;;;1.00;0.90;;;15.50;90.40;;;;;;5014079;28;20473;-74
2021/05/26 10:16:37;;;;;;;1.42;1.33;;;15.20;90.70;;;;;;5013562;28;20054;-74
2021/05/26 10:19:05;;;;;;;3.35;1.10;;;15.20;91.00;;;;;;5014830;28;20100;-74
2021/05/26 10:21:32;;;;;;;2.67;1.10;;;15.10;91.20;;;;;;5030578;28;20046;-74
2021/05/26 10:23:59;;;;;;;5.05;1.20;;;15.00;92.30;;;;;;5033684;28;20132;-74
2021/05/26 10:26:59;;;;;;;1.35;1.25;;;14.70;92.30;;;;;;5033367;28;20081;-74
2021/05/26 10:29:33;;;;;;;1.75;0.95;;;14.90;91.70;;;;;;5032809;28;20049;-74
2021/05/26 10:32:02;;;;;;;1.45;0.85;;;15.00;91.50;;;;;;5033012;28;20145;-74
2021/05/26 10:35:06;;;;;;;6.20;2.22;;;15.10;91.80;;;;;;5033221;28;20413;-74
2021/05/26 10:37:36;;;;;;;1.27;0.82;;;15.80;91.90;;;;;;5033048;28;20045;-74
2021/05/26 10:40:22;;;;;;;1.08;0.80;;;16.70;90.20;;;;;;5032848;28;20119;-74
2021/05/26 10:42:49;;;;;;;2.78;1.33;;;16.90;89.30;;;;;;5031699;28;20041;-73
2021/05/26 10:45:19;;;;;;;1.00;1.00;;;16.50;90.40;;;;;;5018325;28;20494;-73
2021/05/26 10:47:46;;;;;;;2.15;1.35;;;16.50;90.20;;;;;;5018689;28;20050;-74
2021/05/26 10:50:15;;;;;;;4.78;1.73;;;15.70;90.90;;;;;;5013671;28;20667;-74
2021/05/26 10:53:12;;;;;;;1.77;1.00;;;15.30;91.90;;;;;;5013328;28;20048;-73
2021/05/26 10:55:39;;;;;;;1.58;1.35;;;15.20;92.40;;;;;;5016736;28;20042;-74
2021/05/26 10:58:19;;;;;;;2.35;0.80;;;15.30;92.90;;;;;;5012748;28;20644;-73
2021/05/26 11:00:47;;;;;;;1.20;0.80;;;16.10;91.40;;;;;;5013337;28;20054;-74
2021/05/26 11:03:37;;;;;;;3.90;1.63;;;15.80;91.70;;;;;;5014899;28;20053;-73
2021/05/26 11:06:05;;;;;;;2.20;1.40;;;14.90;92.90;;;;;;5006911;28;20100;-73
2021/05/26 11:08:35;;;;;;;1.10;1.10;;;14.70;93.90;;;;;;5012919;28;20042;-71
2021/05/26 11:11:38;;;;;;;2.25;1.25;;;14.60;94.10;;;;;;5013102;28;20068;-71
2021/05/26 11:14:29;;;;;;;1.55;1.02;;;14.70;94.90;;;;;;5017988;28;20144;-73
2021/05/26 11:17:20;;;;;;;4.00;1.17;;;15.30;95.00;;;;;;5032268;28;20535;-73
2021/05/26 11:19:47;;;;;;;1.95;1.05;;;16.10;94.10;;;;;;5015580;28;20054;-73
2021/05/26 11:22:15;;;;;;;1.55;1.10;;;16.20;92.50;;;;;;5014154;28;20052;-73
2021/05/26 11:24:43;;;;;;;3.30;1.02;;;16.20;91.90;;;;;;5012991;28;20089;-72
2021/05/26 11:27:15;;;;;;;0.60;0.60;;;16.40;90.50;;;;;;5012576;28;20072;-74
2021/05/26 11:29:42;;;;;;;1.45;0.80;;;15.90;90.00;;;;;;5012743;28;20139;-73
2021/05/26 11:32:09;;;;;;;1.02;0.90;;;15.40;90.80;;;;;;5030013;28;20042;-73
2021/05/26 11:34:39;;;;;;;1.58;0.80;;;15.20;91.90;;;;;;5012435;28;20067;-75
2021/05/26 11:37:05;;;;;;;2.63;1.10;;;15.30;93.00;;;;;;5012234;28;20057;-73
2021/05/26 11:39:33;;;;;;;1.17;1.05;;;15.40;92.60;;;;;;5013954;28;20433;-74
2021/05/26 11:42:09;;;;;;;1.20;0.90;;;15.40;93.30;;;;;;5012723;28;20050;-74
2021/05/26 11:44:36;;;;;;;0.65;0.45;;;15.40;93.40;;;;;;5016143;28;20046;-73
2021/05/26 11:47:03;;;;;;;1.75;0.88;;;14.60;94.50;;;;;;5029630;28;20095;-72
2021/05/26 11:49:32;;;;;;;0.68;0.30;;;14.00;98.20;;;;;;5023475;28;20041;-73
2021/05/26 11:52:03;;;;;;;0.40;0.40;;;13.60;99.90;;;;;;5019502;28;20080;-72
2021/05/26 11:54:29;;;;;;;1.25;0.45;;;13.10;99.90;;;;;;5032233;28;20099;-73
2021/05/26 11:57:00;;;;;;;0.65;0.60;;;13.00;99.90;;;;;;5030099;28;20101;-73
2021/05/26 11:59:28;;;;;;;0.52;0.52;;;12.90;99.90;;;;;;5031821;28;20050;-73
2021/05/26 12:01:54;;;;;;;3.50;0.90;;;12.90;99.90;;;;;;5030791;28;20042;-72
2021/05/26 12:04:21;;;;;;;0.70;0.65;;;12.80;99.90;;;;;;5017314;28;20048;-71
2021/05/26 12:06:48;;;;;;;0.60;0.60;;;13.00;99.90;;;;;;5011670;28;20501;-69
2021/05/26 12:09:28;;;;;;;1.70;0.80;;;13.20;99.90;;;;;;5011986;28;20042;-74
2021/05/26 12:11:55;;;;;;;0.50;0.47;;;13.80;99.90;;;;;;5012169;28;20057;-73
2021/05/26 12:14:26;;;;;;;0.47;0.47;;;14.40;99.90;;;;;;5012409;28;20080;-74
2021/05/26 12:16:53;;;;;;;0.40;0.40;;;14.90;99.90;;;;;;5011716;28;20057;-70
2021/05/26 12:19:19;;;;;;;2.90;0.70;;;15.50;99.90;;;;;;5013504;28;20387;-69
2021/05/26 12:21:47;;;;;;;0.80;0.63;;;16.40;99.90;;;;;;5012196;28;20046;-70
2021/05/26 12:24:14;;;;;;;1.33;0.50;;;17.10;99.90;;;;;;5012001;28;20042;-69
2021/05/26 12:26:46;;;;;;;1.55;0.60;;;17.50;96.70;;;;;;5011457;28;20057;-70
2021/05/26 12:29:12;;;;;;;0.50;0.50;;;18.20;94.90;;;;;;5013830;28;20046;-69
2021/05/26 12:31:39;;;;;;;0.38;0.38;;;18.20;93.50;;;;;;5012716;28;20486;-68
2021/05/26 12:34:13;;;;;;;1.25;0.30;;;17.70;91.30;;;;;;5029338;28;20417;-68
2021/05/26 12:36:47;;;;;;;0.50;0.50;;;17.00;93.10;;;;;;5035202;28;20053;-70
2021/05/26 12:39:13;;;;;;;0.50;0.50;;;17.00;92.90;;;;;;5030724;28;20136;-70
2021/05/26 12:41:45;;;;;;;1.38;0.40;;;17.30;92.20;;;;;;5035346;28;20041;-69
2021/05/26 12:44:19;;;;;;;0.40;0.40;;;16.90;91.70;;;;;;5035532;28;20141;-72
2021/05/26 12:46:48;;;;;;;0.50;0.50;;;17.00;91.60;;;;;;5022337;28;20056;-69
2021/05/26 12:49:35;;;;;;;0.75;0.50;;;16.70;90.70;;;;;;5034202;28;20049;-73
2021/05/26 12:52:03;;;;;;;0.73;0.60;;;16.70;92.30;;;;;;5015910;28;20052;-73
2021/05/26 12:54:40;;;;;;;0.40;0.40;;;17.00;91.70;;;;;;5015517;28;20041;-74
2021/05/26 12:57:09;;;;;;;0.50;0.50;;;17.10;89.80;;;;;;5015153;28;20056;-74
2021/05/26 12:59:36;;;;;;;0.60;0.60;;;16.70;90.80;;;;;;5015568;28;20049;-73
2021/05/26 13:02:03;;;;;;;0.50;0.43;;;17.00;90.90;;;;;;5015287;28;20050;-74
2021/05/26 13:04:29;;;;;;;0.20;0.20;;;17.90;89.50;;;;;;5016607;28;20046;-73
2021/05/26 13:06:55;;;;;;;0.77;0.70;;;18.10;85.10;;;;;;5014819;28;20054;-73
2021/05/26 13:09:28;;;;;;;0.73;0.57;;;18.00;84.20;;;;;;5016552;28;20042;-74
2021/05/26 13:11:54;;;;;;;0.90;0.50;;;18.40;83.80;;;;;;5016492;28;20046;-73
2021/05/26 13:14:27;;;;;;;2.72;0.73;;;18.20;82.10;;;;;;5015134;28;20056;-73